Time;durP1;ratioP1;P1;durP2;ratioP2;P2;SDS_P1;SDS_P2;PMS_P1;PMS_P2;Temp;Humidity;BMP_temperature;BMP_pressure;BME280_temperature;BME280_humidity;BME280_pressure;Samples;Min_cycle;Max_cycle;Signal;HPM_P1;HPM_P2
2023/11/26 00:01:54;;;;;;;15.15;8.80;;;;;;;0.72;100.00;100995.41;5001794;28;20025;-71
2023/11/26 00:04:19;;;;;;;14.85;8.75;;;;;;;0.70;100.00;101000.25;4990896;28;20030;-71
2023/11/26 00:06:45;;;;;;;13.70;9.05;;;;;;;0.69;100.00;100997.72;5029374;28;20037;-71
2023/11/26 00:09:11;;;;;;;14.00;8.00;;;;;;;0.73;100.00;101004.47;5018414;28;20108;-71
2023/11/26 00:11:37;;;;;;;15.52;8.20;;;;;;;0.71;100.00;101001.09;5018379;28;20167;-71
2023/11/26 00:14:03;;;;;;;14.38;8.65;;;;;;;0.72;100.00;101002.75;5034578;28;20025;-71
2023/11/26 00:16:34;;;;;;;13.30;8.50;;;;;;;0.71;100.00;101007.41;5018010;28;20462;-71
2023/11/26 00:19:00;;;;;;;15.73;7.82;;;;;;;0.69;100.00;100995.00;5034476;28;20025;-71
2023/11/26 00:21:25;;;;;;;12.43;7.78;;;;;;;0.68;100.00;100998.78;5040580;28;20381;-71
2023/11/26 00:23:51;;;;;;;15.52;8.68;;;;;;;0.67;100.00;101000.69;5009164;28;20056;-71
2023/11/26 00:26:16;;;;;;;13.25;8.63;;;;;;;0.69;100.00;100995.00;5018020;28;20121;-71
2023/11/26 00:28:42;;;;;;;16.48;8.48;;;;;;;0.65;100.00;100995.44;5000186;28;20037;-71
2023/11/26 00:31:08;;;;;;;15.88;8.05;;;;;;;0.65;100.00;101002.81;5001812;28;20375;-71
2023/11/26 00:33:33;;;;;;;16.85;8.32;;;;;;;0.63;100.00;100999.44;5024245;28;20034;-71
2023/11/26 00:35:59;;;;;;;15.10;8.40;;;;;;;0.62;100.00;100997.78;5039761;28;20029;-71
2023/11/26 00:38:24;;;;;;;14.75;8.13;;;;;;;0.62;100.00;101008.72;5034456;28;20028;-71
2023/11/26 00:40:50;;;;;;;13.90;7.85;;;;;;;0.60;100.00;101008.91;5021109;28;20152;-71
2023/11/26 00:43:15;;;;;;;17.02;7.85;;;;;;;0.62;100.00;101003.25;5021452;28;20041;-71
2023/11/26 00:45:41;;;;;;;14.30;7.93;;;;;;;0.60;100.00;100997.97;5031117;28;20041;-71
2023/11/26 00:48:06;;;;;;;11.57;7.78;;;;;;;0.58;100.00;101000.06;5061023;28;20030;-70
2023/11/26 00:50:32;;;;;;;16.73;8.70;;;;;;;0.57;100.00;100998.41;5064733;28;20105;-70
2023/11/26 00:52:59;;;;;;;12.07;8.00;;;;;;;0.55;100.00;100992.31;5064845;28;20438;-71
2023/11/26 00:55:26;;;;;;;14.73;8.32;;;;;;;0.53;100.00;100993.56;5001951;28;20030;-71
2023/11/26 00:57:51;;;;;;;15.00;8.00;;;;;;;0.50;100.00;101000.31;5018000;28;20492;-71
2023/11/26 01:00:17;;;;;;;14.52;8.45;;;;;;;0.48;100.00;101002.44;5001831;28;20030;-71
2023/11/26 01:02:44;;;;;;;14.25;8.82;;;;;;;0.47;100.00;100999.91;5001388;28;20045;-71
2023/11/26 01:05:10;;;;;;;14.88;8.63;;;;;;;0.47;100.00;100988.97;5021458;28;20032;-71
2023/11/26 01:07:36;;;;;;;16.17;8.85;;;;;;;0.45;100.00;100994.69;4989962;28;20037;-71
2023/11/26 01:10:01;;;;;;;16.67;8.50;;;;;;;0.43;100.00;100980.38;5031352;28;20034;-70
2023/11/26 01:12:27;;;;;;;14.32;8.70;;;;;;;0.37;100.00;100989.44;5051163;28;20041;-71
2023/11/26 01:14:53;;;;;;;17.13;9.23;;;;;;;0.36;100.00;100993.22;5047929;28;20025;-71
2023/11/26 01:17:18;;;;;;;16.10;9.13;;;;;;;0.34;100.00;100992.63;5045733;28;20052;-71
2023/11/26 01:19:44;;;;;;;17.30;8.88;;;;;;;0.32;100.00;100990.09;5019358;28;20052;-71
2023/11/26 01:22:09;;;;;;;15.07;8.50;;;;;;;0.28;100.00;100991.59;5001870;28;20089;-71
2023/11/26 01:24:35;;;;;;;14.68;8.73;;;;;;;0.26;100.00;100993.69;5019229;28;20514;-70
2023/11/26 01:27:01;;;;;;;13.82;8.88;;;;;;;0.20;100.00;100983.63;5037755;28;20029;-71
2023/11/26 01:29:26;;;;;;;16.20;9.57;;;;;;;0.17;100.00;100984.88;5058697;28;20052;-71
2023/11/26 01:31:52;;;;;;;15.15;8.98;;;;;;;0.13;100.00;100983.63;5012887;28;20042;-71
2023/11/26 01:34:17;;;;;;;17.77;9.00;;;;;;;0.11;100.00;100983.00;5004766;28;20025;-71
2023/11/26 01:36:43;;;;;;;16.15;9.02;;;;;;;0.09;100.00;100979.66;5021319;28;20025;-71
2023/11/26 01:39:09;;;;;;;17.38;9.88;;;;;;;0.08;100.00;100977.13;5021147;28;20059;-70
2023/11/26 01:41:34;;;;;;;18.65;9.68;;;;;;;0.08;100.00;100972.47;4988893;28;20490;-70
2023/11/26 01:44:00;;;;;;;18.85;10.30;;;;;;;0.02;100.00;100981.53;5004579;28;20049;-71
2023/11/26 01:46:27;;;;;;;17.77;10.23;;;;;;;-0.01;100.00;100981.97;5037642;28;20033;-71
2023/11/26 01:48:53;;;;;;;18.92;10.82;;;;;;;-0.03;100.00;100984.06;5037179;28;20033;-71
2023/11/26 01:51:18;;;;;;;19.13;11.73;;;;;;;-0.05;100.00;100983.47;5037481;28;20079;-71
2023/11/26 01:53:47;;;;;;;19.55;11.23;;;;;;;-0.02;100.00;100977.56;5004384;28;20030;-71
2023/11/26 01:56:13;;;;;;;22.15;11.85;;;;;;;-0.03;100.00;100974.00;5000045;28;20071;-71
2023/11/26 01:58:39;;;;;;;21.13;12.05;;;;;;;-0.10;100.00;100975.91;5059901;28;20496;-71
2023/11/26 02:01:05;;;;;;;22.05;11.70;;;;;;;-0.08;100.00;100973.78;5027807;28;20037;-71
2023/11/26 02:03:30;;;;;;;21.80;11.80;;;;;;;-0.09;100.00;100980.28;5015932;28;20067;-70
2023/11/26 02:05:56;;;;;;;21.73;11.20;;;;;;;-0.12;100.00;100974.44;5045131;28;20022;-71
2023/11/26 02:08:21;;;;;;;18.65;11.88;;;;;;;-0.17;100.00;100969.59;5050604;28;20025;-71
2023/11/26 02:10:48;;;;;;;19.55;11.63;;;;;;;-0.17;100.00;100963.28;5037167;28;20510;-71
2023/11/26 02:13:14;;;;;;;19.15;11.18;;;;;;;-0.20;100.00;100961.00;5020662;28;20025;-70
2023/11/26 02:15:39;;;;;;;20.90;11.82;;;;;;;-0.23;100.00;100957.63;5020437;28;20056;-70
2023/11/26 02:18:05;;;;;;;25.00;12.05;;;;;;;-0.25;100.00;100959.75;5019967;28;20057;-71
2023/11/26 02:20:30;;;;;;;21.58;11.80;;;;;;;-0.27;100.00;100956.38;5036981;28;20029;-70
2023/11/26 02:22:55;;;;;;;19.75;10.93;;;;;;;-0.32;100.00;100953.44;5004232;28;20033;-71
2023/11/26 02:25:23;;;;;;;25.65;11.88;;;;;;;-0.34;100.00;100949.25;5036924;28;20035;-71
2023/11/26 02:27:50;;;;;;;20.17;11.57;;;;;;;-0.39;100.00;100951.78;5035362;28;20051;-71
2023/11/26 02:30:20;;;;;;;19.65;11.80;;;;;;;-0.43;100.00;100950.53;5003835;28;20048;-71
2023/11/26 02:32:46;;;;;;;19.98;12.43;;;;;;;-0.44;100.00;100943.41;5036475;28;20037;-71
2023/11/26 02:35:12;;;;;;;23.60;12.90;;;;;;;-0.46;100.00;100946.31;5036758;28;20037;-71
2023/11/26 02:37:37;;;;;;;22.08;12.10;;;;;;;-0.48;100.00;100935.59;5036568;28;20025;-71
2023/11/26 02:40:05;;;;;;;25.15;12.57;;;;;;;-0.50;100.00;100934.16;5036564;28;20052;-71
2023/11/26 02:42:32;;;;;;;20.52;12.05;;;;;;;-0.50;100.00;100929.53;5036534;28;20053;-71
2023/11/26 02:44:59;;;;;;;21.25;11.80;;;;;;;-0.50;100.00;100931.44;5033164;28;20032;-71
2023/11/26 02:47:26;;;;;;;21.50;11.77;;;;;;;-0.55;100.00;100929.34;5036465;28;20030;-71
2023/11/26 02:49:52;;;;;;;20.20;11.75;;;;;;;-0.55;100.00;100931.22;5036311;28;20033;-71
2023/11/26 02:52:18;;;;;;;23.80;12.13;;;;;;;-0.57;100.00;100933.31;4987366;28;20029;-71
2023/11/26 02:54:44;;;;;;;19.45;11.32;;;;;;;-0.59;100.00;100930.78;5019853;28;20025;-71
2023/11/26 02:57:10;;;;;;;24.85;11.88;;;;;;;-0.61;100.00;100937.50;5036210;28;20375;-71
2023/11/26 02:59:35;;;;;;;21.95;12.40;;;;;;;-0.59;100.00;100938.97;5003357;28;20029;-71
2023/11/26 03:02:01;;;;;;;19.95;11.38;;;;;;;-0.60;100.00;100931.00;5019593;28;20033;-71
2023/11/26 03:04:26;;;;;;;24.20;12.15;;;;;;;-0.62;100.00;100935.84;5023877;28;20029;-70
2023/11/26 03:06:52;;;;;;;22.58;12.18;;;;;;;-0.64;100.00;100930.59;5036638;28;20026;-71
2023/11/26 03:14:48;;;;;;;19.17;12.82;;;;;;;-0.72;100.00;100931.66;5049165;28;20025;-70
2023/11/26 03:17:14;;;;;;;20.30;12.93;;;;;;;-0.75;100.00;100926.63;5019659;28;20045;-71
2023/11/26 03:19:40;;;;;;;22.75;13.90;;;;;;;-0.76;100.00;100927.63;5035665;28;20040;-71
2023/11/26 03:22:09;;;;;;;25.58;12.90;;;;;;;-0.78;100.00;100927.03;5035857;28;20036;-71
2023/11/26 03:24:36;;;;;;;21.05;13.38;;;;;;;-0.78;100.00;100921.56;5040915;28;20087;-70
2023/11/26 03:27:05;;;;;;;22.05;13.20;;;;;;;-0.79;100.00;100917.16;5043352;28;20033;-71
2023/11/26 03:29:30;;;;;;;22.83;12.60;;;;;;;-0.80;100.00;100912.75;5057900;28;20044;-70
2023/11/26 03:31:56;;;;;;;21.63;12.90;;;;;;;-0.83;100.00;100920.53;5009759;28;20025;-71
2023/11/26 03:34:23;;;;;;;21.55;12.93;;;;;;;-0.84;100.00;100921.56;5019175;28;20055;-71
2023/11/26 03:36:49;;;;;;;24.10;13.55;;;;;;;-0.83;100.00;100913.19;5015802;28;20077;-71
2023/11/26 03:39:18;;;;;;;25.67;12.70;;;;;;;-0.89;100.00;100908.56;5041394;28;20512;-70
2023/11/26 03:41:43;;;;;;;20.67;12.40;;;;;;;-0.87;100.00;100917.34;5017306;28;20038;-71
2023/11/26 03:44:09;;;;;;;19.63;12.38;;;;;;;-0.90;100.00;100917.78;5035302;28;20033;-71
2023/11/26 03:46:35;;;;;;;20.10;12.38;;;;;;;-0.92;100.00;100914.41;5034662;28;20037;-71
2023/11/26 03:49:01;;;;;;;19.33;12.68;;;;;;;-0.94;100.00;100909.19;5002481;28;20482;-70
2023/11/26 03:51:28;;;;;;;20.75;12.50;;;;;;;-0.96;100.00;100916.72;5035268;28;20029;-70
2023/11/26 03:53:54;;;;;;;22.48;12.32;;;;;;;-1.00;100.00;100920.94;5018746;28;20120;-71
2023/11/26 03:56:19;;;;;;;21.58;12.25;;;;;;;-1.00;100.00;100918.19;5002450;28;20030;-70
2023/11/26 03:58:45;;;;;;;21.00;11.95;;;;;;;-1.02;100.00;100914.00;5035110;28;20104;-71
2023/11/26 04:01:11;;;;;;;24.67;12.73;;;;;;;-1.05;100.00;100911.69;5035110;28;20029;-70
2023/11/26 04:03:38;;;;;;;18.83;12.38;;;;;;;-1.06;100.00;100908.09;5018786;28;20091;-70
2023/11/26 04:06:03;;;;;;;21.60;12.30;;;;;;;-1.08;100.00;100910.22;5018587;28;20474;-71
2023/11/26 04:08:29;;;;;;;18.58;11.65;;;;;;;-1.09;100.00;100908.53;5015790;28;20048;-70
2023/11/26 04:10:54;;;;;;;19.65;12.35;;;;;;;-1.12;100.00;100909.78;5011507;28;20029;-71
2023/11/26 04:13:22;;;;;;;18.48;11.18;;;;;;;-1.12;100.00;100906.22;5034931;28;20486;-70
2023/11/26 04:15:54;;;;;;;21.55;11.95;;;;;;;-1.15;100.00;100915.63;5034828;28;20083;-71
2023/11/26 04:18:20;;;;;;;22.25;12.43;;;;;;;-1.17;100.00;100912.31;5006994;28;20033;-70
2023/11/26 04:20:47;;;;;;;18.38;10.98;;;;;;;-1.16;100.00;100918.59;5034808;28;20034;-70
2023/11/26 04:23:14;;;;;;;19.10;11.88;;;;;;;-1.15;100.00;100920.25;5018605;28;20033;-71
2023/11/26 04:25:43;;;;;;;22.92;11.95;;;;;;;-1.18;100.00;100913.34;4983641;28;20025;-70
2023/11/26 04:28:08;;;;;;;20.25;11.30;;;;;;;-1.21;100.00;100921.94;5017959;28;20474;-70
2023/11/26 04:30:34;;;;;;;21.30;11.68;;;;;;;-1.22;100.00;100913.97;5001989;28;20033;-71
2023/11/26 04:33:00;;;;;;;19.08;11.68;;;;;;;-1.23;100.00;100912.28;5009738;28;20452;-71
2023/11/26 04:35:26;;;;;;;18.08;11.20;;;;;;;-1.27;100.00;100920.03;5005320;28;20058;-71
2023/11/26 04:37:51;;;;;;;18.10;10.90;;;;;;;-1.26;100.00;100924.44;5026956;28;20037;-71
2023/11/26 04:40:17;;;;;;;20.92;11.40;;;;;;;-1.28;100.00;100915.63;5034643;28;20034;-71
2023/11/26 04:42:43;;;;;;;19.15;11.68;;;;;;;-1.31;100.00;100913.34;5034712;28;20406;-71
2023/11/26 04:45:09;;;;;;;18.55;11.25;;;;;;;-1.33;100.00;100912.69;5000712;28;20026;-71
2023/11/26 04:47:38;;;;;;;22.10;11.57;;;;;;;-1.32;100.00;100902.63;5017934;28;20375;-70
2023/11/26 04:50:04;;;;;;;18.73;11.18;;;;;;;-1.35;100.00;100899.25;5017984;28;20145;-70
2023/11/26 04:52:31;;;;;;;19.52;11.10;;;;;;;-1.35;100.00;100892.97;5018228;28;20040;-71
2023/11/26 04:54:57;;;;;;;18.13;10.68;;;;;;;-1.38;100.00;100893.38;5017754;28;20025;-70
2023/11/26 04:57:22;;;;;;;18.23;10.52;;;;;;;-1.37;100.00;100897.78;5018059;28;20021;-70
2023/11/26 04:59:48;;;;;;;18.23;10.98;;;;;;;-1.40;100.00;100895.47;4983909;28;20034;-70
2023/11/26 05:02:14;;;;;;;17.83;10.93;;;;;;;-1.41;100.00;100896.53;5008449;28;20030;-70
2023/11/26 05:04:40;;;;;;;18.33;11.57;;;;;;;-1.40;100.00;100895.47;5008754;28;20026;-70
2023/11/26 05:07:05;;;;;;;18.40;9.93;;;;;;;-1.40;100.00;100898.19;4985939;28;20041;-70
2023/11/26 05:09:32;;;;;;;17.67;10.77;;;;;;;-1.43;100.00;100904.06;5049381;28;20025;-70
2023/11/26 05:11:59;;;;;;;15.68;10.05;;;;;;;-1.41;100.00;100893.81;5029708;28;20170;-70
2023/11/26 05:14:24;;;;;;;19.15;10.18;;;;;;;-1.41;100.00;100896.53;5010617;28;20025;-70
2023/11/26 05:16:49;;;;;;;24.48;10.82;;;;;;;-1.40;100.00;100901.75;5021212;28;20100;-70
2023/11/26 05:19:15;;;;;;;16.08;10.18;;;;;;;-1.37;100.00;100895.06;5037816;28;20040;-70
2023/11/26 05:21:40;;;;;;;19.38;10.60;;;;;;;-1.37;100.00;100895.88;5038078;28;20222;-71
2023/11/26 05:24:06;;;;;;;21.50;10.85;;;;;;;-1.35;100.00;100892.97;5041448;28;20494;-70
2023/11/26 05:26:32;;;;;;;18.70;11.50;;;;;;;-1.35;100.00;100892.97;5001920;28;20142;-70
2023/11/26 05:28:58;;;;;;;17.50;10.15;;;;;;;-1.31;100.00;100898.84;5032997;28;20071;-70
2023/11/26 05:31:23;;;;;;;20.08;10.95;;;;;;;-1.28;100.00;100887.53;5037979;28;20037;-70
2023/11/26 05:33:51;;;;;;;16.40;10.05;;;;;;;-1.28;100.00;100893.84;4987157;28;20029;-71
2023/11/26 05:36:17;;;;;;;16.33;10.90;;;;;;;-1.27;100.00;100892.78;4985894;28;20034;-70
2023/11/26 05:38:43;;;;;;;25.80;11.73;;;;;;;-1.24;100.00;100886.09;5032388;28;20022;-70
2023/11/26 05:41:09;;;;;;;21.30;10.50;;;;;;;-1.23;100.00;100885.84;5013385;28;20030;-70
2023/11/26 05:43:34;;;;;;;15.20;10.05;;;;;;;-1.22;100.00;100897.63;5017037;28;20124;-71
2023/11/26 05:46:00;;;;;;;16.77;10.77;;;;;;;-1.22;100.00;100882.09;5004809;28;20025;-71
2023/11/26 05:48:25;;;;;;;16.70;10.35;;;;;;;-1.21;100.00;100878.31;5019543;28;20494;-71
2023/11/26 05:50:51;;;;;;;17.70;10.18;;;;;;;-1.15;100.00;100890.28;5045299;28;20026;-71
2023/11/26 05:53:18;;;;;;;16.95;10.20;;;;;;;-1.18;100.00;100885.25;5003316;28;20048;-70
2023/11/26 05:55:44;;;;;;;19.10;10.52;;;;;;;-1.16;100.00;100880.44;5022956;28;20394;-71
2023/11/26 05:58:09;;;;;;;18.17;10.25;;;;;;;-1.15;100.00;100874.75;5019757;28;20092;-70
2023/11/26 06:00:35;;;;;;;16.92;10.00;;;;;;;-1.14;100.00;100879.19;5020842;28;20045;-70
2023/11/26 06:03:00;;;;;;;19.05;10.05;;;;;;;-1.06;100.00;100874.56;5036740;28;20032;-71
2023/11/26 06:05:26;;;;;;;21.00;10.50;;;;;;;-1.09;100.00;100884.00;5008559;28;20033;-71
2023/11/26 06:07:52;;;;;;;15.00;9.60;;;;;;;-1.06;100.00;100882.72;5004320;28;20029;-71
2023/11/26 06:10:17;;;;;;;16.38;9.95;;;;;;;-1.06;100.00;100874.56;5017060;28;20021;-70
2023/11/26 06:12:43;;;;;;;19.08;10.57;;;;;;;-1.06;100.00;100877.28;5047686;28;20070;-71
2023/11/26 06:15:09;;;;;;;18.05;10.70;;;;;;;-1.05;100.00;100881.72;5017418;28;20034;-71
2023/11/26 06:17:34;;;;;;;23.15;11.00;;;;;;;-1.05;100.00;100878.97;5019835;28;20073;-70
2023/11/26 06:20:00;;;;;;;21.20;10.63;;;;;;;-1.05;100.00;100876.25;5027558;28;20075;-71
2023/11/26 06:22:25;;;;;;;19.27;10.45;;;;;;;-1.07;100.00;100878.34;5026824;28;20060;-70
2023/11/26 06:24:51;;;;;;;19.98;10.68;;;;;;;-1.06;100.00;100869.94;5017230;28;20038;-70
2023/11/26 06:27:16;;;;;;;19.15;11.07;;;;;;;-1.05;100.00;100874.38;5029122;28;20029;-70
2023/11/26 06:29:42;;;;;;;17.85;10.65;;;;;;;-1.04;100.00;100877.91;5060180;28;20059;-70
2023/11/26 06:32:07;;;;;;;15.82;9.73;;;;;;;-1.03;100.00;100879.59;5023570;28;20038;-71
2023/11/26 06:34:33;;;;;;;19.48;10.48;;;;;;;-1.01;100.00;100872.06;5000620;28;20441;-70
2023/11/26 06:37:00;;;;;;;17.83;10.48;;;;;;;-1.02;100.00;100873.09;5000859;28;20030;-70
2023/11/26 06:39:27;;;;;;;19.30;10.52;;;;;;;-1.03;100.00;100858.66;5020504;28;20029;-70
2023/11/26 06:41:53;;;;;;;17.75;9.88;;;;;;;-1.04;100.00;100858.84;5020127;28;20025;-70
2023/11/26 06:44:18;;;;;;;19.33;10.52;;;;;;;-1.05;100.00;100857.16;5028956;28;20368;-70
2023/11/26 06:46:44;;;;;;;18.98;9.65;;;;;;;-1.06;100.00;100860.94;5011250;28;20042;-71
2023/11/26 06:49:09;;;;;;;19.25;10.00;;;;;;;-1.06;100.00;100863.66;5020408;28;20036;-71
2023/11/26 06:51:34;;;;;;;19.48;11.00;;;;;;;-1.02;100.00;100859.47;5036229;28;20409;-71
2023/11/26 06:54:00;;;;;;;15.88;10.02;;;;;;;-1.06;100.00;100858.19;5036295;28;20036;-71
2023/11/26 06:56:25;;;;;;;15.25;8.85;;;;;;;-1.04;100.00;100850.66;5019590;28;20037;-71
2023/11/26 06:58:51;;;;;;;16.25;9.07;;;;;;;-1.06;100.00;100839.13;5000135;28;20025;-71
2023/11/26 07:01:16;;;;;;;15.18;9.45;;;;;;;-1.07;100.00;100834.72;5006471;28;20029;-70
2023/11/26 07:03:42;;;;;;;18.70;9.65;;;;;;;-1.07;100.00;100845.63;5013533;28;20037;-71
2023/11/26 07:06:09;;;;;;;16.05;10.07;;;;;;;-1.08;100.00;100842.06;5045706;28;20032;-70
2023/11/26 07:08:37;;;;;;;19.80;10.48;;;;;;;-1.09;100.00;100839.53;5045464;28;20055;-71
2023/11/26 07:11:06;;;;;;;18.15;9.85;;;;;;;-1.10;100.00;100840.59;5025919;28;20507;-70
2023/11/26 07:13:33;;;;;;;19.35;10.05;;;;;;;-1.08;100.00;100850.25;5020059;28;20029;-71
2023/11/26 07:15:58;;;;;;;15.95;9.90;;;;;;;-1.10;100.00;100840.59;5002786;28;20044;-71
2023/11/26 07:18:24;;;;;;;15.00;9.48;;;;;;;-1.09;100.00;100840.38;5016159;28;20022;-70
2023/11/26 07:20:49;;;;;;;16.48;9.15;;;;;;;-1.05;100.00;100838.09;5029982;28;20030;-70
2023/11/26 07:23:15;;;;;;;14.20;8.77;;;;;;;-1.04;100.00;100850.66;5015476;28;20030;-70
2023/11/26 07:25:41;;;;;;;17.00;9.27;;;;;;;-1.04;100.00;100846.03;5016563;28;20034;-71
2023/11/26 07:28:11;;;;;;;16.77;9.48;;;;;;;-1.02;100.00;100854.84;5015479;28;20026;-71
2023/11/26 07:30:37;;;;;;;15.60;9.10;;;;;;;-1.01;100.00;100852.97;5014267;28;20444;-70
2023/11/26 07:33:03;;;;;;;16.35;8.68;;;;;;;-1.01;100.00;100853.81;5002761;28;20029;-70
2023/11/26 07:35:30;;;;;;;21.60;9.73;;;;;;;-0.98;100.00;100850.66;5017011;28;20037;-70
2023/11/26 07:37:56;;;;;;;17.58;9.57;;;;;;;-0.96;100.00;100855.91;4994908;28;20498;-70
2023/11/26 07:40:21;;;;;;;18.35;8.80;;;;;;;-0.94;100.00;100857.38;5046977;28;20437;-70
2023/11/26 07:42:48;;;;;;;16.35;9.13;;;;;;;-0.93;100.00;100853.59;4983877;28;20060;-70
2023/11/26 07:45:13;;;;;;;15.88;9.57;;;;;;;-0.87;100.00;100848.34;5001479;28;20072;-70
2023/11/26 07:47:39;;;;;;;15.45;8.13;;;;;;;-0.89;100.00;100854.03;4998985;28;20026;-70
2023/11/26 07:50:08;;;;;;;16.80;9.75;;;;;;;-0.88;100.00;100854.88;5012591;28;20435;-70
2023/11/26 07:52:34;;;;;;;19.55;9.80;;;;;;;-0.86;100.00;100858.19;5016665;28;20026;-71
2023/11/26 07:55:04;;;;;;;17.27;9.45;;;;;;;-0.84;100.00;100859.66;5001853;28;20064;-72
2023/11/26 07:57:34;;;;;;;18.95;9.55;;;;;;;-0.80;100.00;100860.94;5034859;28;20022;-70
2023/11/26 07:59:59;;;;;;;16.73;9.20;;;;;;;-0.78;100.00;100867.03;5035163;28;20040;-70
2023/11/26 08:02:26;;;;;;;17.33;9.73;;;;;;;-0.73;100.00;100859.03;4986023;28;20112;-70
2023/11/26 08:04:53;;;;;;;17.80;9.35;;;;;;;-0.70;100.00;100863.22;5005827;28;20037;-70
2023/11/26 08:07:23;;;;;;;16.35;8.68;;;;;;;-0.66;100.00;100867.22;5015811;28;20540;-70
2023/11/26 08:09:54;;;;;;;18.17;8.75;;;;;;;-0.63;100.00;100874.16;4996156;28;20030;-70
2023/11/26 08:12:20;;;;;;;16.13;8.70;;;;;;;-0.60;100.00;100879.19;5019012;28;20056;-70
2023/11/26 08:14:52;;;;;;;18.10;8.80;;;;;;;-0.57;100.00;100876.03;5018800;28;20025;-70
2023/11/26 08:17:19;;;;;;;12.43;8.20;;;;;;;-0.55;100.00;100879.38;4999302;28;20100;-70
2023/11/26 08:19:45;;;;;;;16.23;8.40;;;;;;;-0.47;100.00;100885.47;5040773;28;20282;-70
2023/11/26 08:22:11;;;;;;;17.52;8.43;;;;;;;-0.46;100.00;100886.28;5030678;28;20029;-70
2023/11/26 08:24:39;;;;;;;17.08;8.85;;;;;;;-0.41;100.00;100888.41;5032365;28;20026;-70
2023/11/26 08:27:05;;;;;;;14.07;8.38;;;;;;;-0.39;100.00;100887.13;5027512;28;20029;-70
2023/11/26 08:29:30;;;;;;;14.23;8.20;;;;;;;-0.32;100.00;100887.13;5034299;28;20379;-70
2023/11/26 08:31:57;;;;;;;15.30;8.40;;;;;;;-0.31;100.00;100892.34;5034621;28;20567;-70
2023/11/26 08:34:23;;;;;;;13.77;7.53;;;;;;;-0.28;100.00;100889.22;5021467;28;20022;-70
2023/11/26 08:36:52;;;;;;;17.52;7.55;;;;;;;-0.24;100.00;100895.06;5018823;28;20034;-70
2023/11/26 08:39:27;;;;;;;13.20;7.65;;;;;;;-0.22;100.00;100887.53;5026933;28;20033;-70
2023/11/26 08:41:53;;;;;;;12.48;7.57;;;;;;;-0.16;100.00;100896.75;5023702;28;20034;-70
2023/11/26 08:44:18;;;;;;;13.43;7.50;;;;;;;-0.12;100.00;100903.44;5022426;28;20105;-70
2023/11/26 08:46:45;;;;;;;12.57;7.68;;;;;;;-0.08;100.00;100896.50;5039587;28;20041;-71
2023/11/26 08:49:15;;;;;;;12.85;7.55;;;;;;;-0.06;100.00;100900.69;5039970;28;20033;-70
2023/11/26 08:51:41;;;;;;;13.43;7.55;;;;;;;-0.02;100.00;100898.38;5038392;28;20026;-70
2023/11/26 08:54:06;;;;;;;14.18;7.03;;;;;;;0.01;100.00;100906.13;5039794;28;20067;-70
2023/11/26 08:56:32;;;;;;;14.23;7.57;;;;;;;0.06;100.00;100905.50;5021940;28;20034;-71
2023/11/26 08:58:58;;;;;;;12.07;7.07;;;;;;;0.10;100.00;100904.84;5022087;28;20028;-70
2023/11/26 09:01:24;;;;;;;14.40;6.95;;;;;;;0.16;100.00;100905.88;5021906;28;20063;-70
2023/11/26 09:03:49;;;;;;;10.88;7.10;;;;;;;0.21;100.00;100906.91;5031269;28;20460;-70
2023/11/26 09:06:17;;;;;;;13.70;6.75;;;;;;;0.25;100.00;100909.19;5032687;28;20029;-70
2023/11/26 09:08:49;;;;;;;11.57;7.35;;;;;;;0.30;100.00;100903.91;5038249;28;20037;-70
2023/11/26 09:11:15;;;;;;;15.93;7.93;;;;;;;0.37;100.00;100905.56;5039740;28;20052;-70
2023/11/26 09:13:40;;;;;;;12.07;7.15;;;;;;;0.41;100.00;100903.25;5005642;28;20029;-70
2023/11/26 09:16:06;;;;;;;17.95;7.53;;;;;;;0.48;100.00;100903.22;5067741;28;20048;-70
2023/11/26 09:18:32;;;;;;;13.82;7.43;;;;;;;0.54;100.00;100903.19;5018124;28;20401;-70
2023/11/26 09:20:58;;;;;;;11.40;6.88;;;;;;;0.58;100.00;100890.75;5000891;28;20033;-70
2023/11/26 09:23:23;;;;;;;15.02;7.22;;;;;;;0.65;100.00;100888.00;5021801;28;20034;-70
2023/11/26 09:25:49;;;;;;;13.57;7.32;;;;;;;0.71;100.00;100889.00;4989613;28;20084;-70
2023/11/26 09:28:14;;;;;;;11.73;6.68;;;;;;;0.78;100.00;100892.53;5011169;28;20030;-70
2023/11/26 09:30:40;;;;;;;13.70;6.85;;;;;;;0.83;100.00;100896.25;5017178;28;20103;-70
2023/11/26 09:33:05;;;;;;;13.23;6.80;;;;;;;0.90;100.00;100890.78;4985244;28;20038;-71
2023/11/26 09:35:31;;;;;;;14.40;6.60;;;;;;;0.95;100.00;100892.81;5049992;28;20481;-70
2023/11/26 09:37:56;;;;;;;11.10;6.85;;;;;;;1.01;100.00;100887.31;5001780;28;20037;-70
2023/11/26 09:40:22;;;;;;;11.48;7.05;;;;;;;1.05;100.00;100888.53;5036518;28;20026;-70
2023/11/26 09:42:54;;;;;;;13.25;7.20;;;;;;;1.11;100.00;100884.06;5023391;28;20038;-71
2023/11/26 09:45:20;;;;;;;15.50;7.10;;;;;;;1.15;100.00;100887.22;5016703;28;20021;-70
2023/11/26 09:47:45;;;;;;;13.13;7.18;;;;;;;1.20;100.00;100873.69;5020983;28;20405;-70
2023/11/26 09:50:11;;;;;;;16.40;7.00;;;;;;;1.25;100.00;100890.28;5038818;28;20033;-70
2023/11/26 09:52:37;;;;;;;14.05;6.90;;;;;;;1.31;100.00;100878.47;5001570;28;20300;-70
2023/11/26 09:55:03;;;;;;;18.75;7.68;;;;;;;1.36;100.00;100870.41;5035281;28;20025;-70
2023/11/26 09:57:30;;;;;;;15.00;6.82;;;;;;;1.42;100.00;100877.72;5004710;28;20105;-70
2023/11/26 09:59:58;;;;;;;16.00;7.10;;;;;;;1.47;100.00;100877.88;5038532;28;20103;-71
2023/11/26 10:02:23;;;;;;;13.00;7.40;;;;;;;1.56;100.00;100876.53;5017742;28;20045;-71
2023/11/26 10:04:50;;;;;;;16.67;8.15;;;;;;;1.61;100.00;100864.06;5023241;28;20022;-70
2023/11/26 10:07:32;;;;;;;19.98;7.75;;;;;;;1.71;100.00;100867.13;5020828;28;20413;-71
2023/11/26 10:10:03;;;;;;;17.08;7.63;;;;;;;1.79;100.00;100866.81;5037188;28;20029;-71
2023/11/26 10:12:28;;;;;;;20.20;8.32;;;;;;;1.88;100.00;100868.19;5017547;28;20030;-71
2023/11/26 10:15:12;;;;;;;12.85;6.90;;;;;;;1.99;100.00;100867.44;5020560;28;20030;-71
2023/11/26 10:17:37;;;;;;;18.70;7.90;;;;;;;2.11;100.00;100874.88;5036727;28;20183;-71
2023/11/26 10:20:16;;;;;;;12.52;6.75;;;;;;;2.22;100.00;100865.88;5036966;28;20037;-71
2023/11/26 10:22:45;;;;;;;16.77;7.22;;;;;;;2.35;100.00;100862.16;5020208;28;20135;-71
2023/11/26 10:25:11;;;;;;;15.35;7.22;;;;;;;2.45;100.00;100865.16;5004284;28;20057;-71
2023/11/26 10:27:36;;;;;;;21.35;8.05;;;;;;;2.57;100.00;100854.25;4986886;28;20063;-71
2023/11/26 10:30:02;;;;;;;16.85;7.55;;;;;;;2.68;100.00;100856.22;5026693;28;20029;-71
2023/11/26 10:32:28;;;;;;;14.25;6.72;;;;;;;2.80;100.00;100845.28;5000452;28;20490;-71
2023/11/26 10:34:54;;;;;;;20.48;8.77;;;;;;;2.90;100.00;100845.53;5046848;28;20040;-71
2023/11/26 10:37:20;;;;;;;16.73;7.07;;;;;;;3.03;100.00;100839.00;5003690;28;20032;-71
2023/11/26 10:39:46;;;;;;;18.90;7.15;;;;;;;3.17;100.00;100840.44;5033238;28;20437;-71
2023/11/26 10:42:12;;;;;;;16.30;7.72;;;;;;;3.29;100.00;100835.81;5014031;28;20034;-71
2023/11/26 10:44:38;;;;;;;13.60;6.97;;;;;;;3.43;100.00;100830.09;5028442;28;20087;-71
2023/11/26 10:47:05;;;;;;;14.90;7.50;;;;;;;3.54;100.00;100823.75;5000145;28;20485;-71
2023/11/26 10:49:40;;;;;;;17.08;7.13;;;;;;;3.67;100.00;100823.47;4984176;28;20026;-71
2023/11/26 10:52:38;;;;;;;16.00;7.18;;;;;;;3.84;100.00;100833.72;5034696;28;20110;-71
2023/11/26 10:55:10;;;;;;;14.57;7.53;;;;;;;3.96;100.00;100834.56;5002537;28;20056;-70
2023/11/26 10:57:39;;;;;;;17.85;7.00;;;;;;;4.08;100.00;100829.88;5015913;28;20562;-70
2023/11/26 11:00:07;;;;;;;11.50;6.50;;;;;;;4.21;100.00;100824.09;5016238;28;20388;-70
2023/11/26 11:02:34;;;;;;;18.42;7.95;;;;;;;4.34;100.00;100833.13;5019785;28;20363;-70
2023/11/26 11:05:00;;;;;;;14.52;6.88;;;;;;;4.49;100.00;100825.19;5003905;28;20030;-70
2023/11/26 11:07:25;;;;;;;15.05;6.60;;;;;;;4.59;100.00;100816.28;5003310;28;20044;-73
2023/11/26 11:10:10;;;;;;;16.25;5.72;;;;;;;4.69;100.00;100808.22;5019499;28;20089;-70
2023/11/26 11:13:17;;;;;;;10.98;5.80;;;;;;;4.84;100.00;100802.13;5035992;28;20033;-70